createdAt,value
2023-05-22T00:02:08.360Z,19.12
2023-05-22T00:04:35.324Z,18.99
2023-05-22T00:07:02.230Z,18.89
2023-05-22T00:09:29.057Z,18.62
2023-05-22T00:11:56.127Z,18.74
2023-05-22T00:14:22.955Z,18.55
2023-05-22T00:16:50.537Z,18.37
2023-05-22T00:19:18.417Z,18.47
2023-05-22T00:21:47.122Z,17.91
2023-05-22T00:24:14.004Z,18.25
2023-05-22T00:26:40.785Z,18.48
2023-05-22T00:29:07.644Z,18.43
2023-05-22T00:31:34.473Z,18.59
2023-05-22T00:34:01.586Z,18.04
2023-05-22T00:36:28.615Z,18.06
2023-05-22T00:38:55.620Z,17.60
2023-05-22T00:41:23.157Z,17.87
2023-05-22T00:43:51.440Z,18.14
2023-05-22T00:46:21.791Z,18.14
2023-05-22T00:48:49.251Z,18.04
2023-05-22T00:51:16.341Z,18.16
2023-05-22T00:53:44.585Z,18.21
2023-05-22T00:56:12.568Z,18.38
2023-05-22T00:58:39.501Z,18.39
2023-05-22T01:01:07.858Z,18.28
2023-05-22T01:06:04.528Z,17.71
2023-05-22T01:08:31.347Z,17.95
2023-05-22T01:11:05.526Z,17.87
2023-05-22T01:13:52.000Z,17.65
2023-05-22T01:16:32.955Z,17.75
2023-05-22T01:19:11.103Z,17.89
2023-05-22T01:21:46.452Z,17.97
2023-05-22T01:24:53.256Z,18.12
2023-05-22T01:27:26.299Z,18.09
2023-05-22T01:30:17.694Z,18.02
2023-05-22T01:32:47.561Z,17.82
2023-05-22T01:35:19.194Z,17.80
2023-05-22T01:37:46.803Z,17.81
2023-05-22T01:40:14.225Z,17.99
2023-05-22T01:42:41.485Z,18.07
2023-05-22T01:45:11.718Z,17.84
2023-05-22T01:47:38.679Z,17.88
2023-05-22T01:50:06.789Z,17.88
2023-05-22T01:52:36.192Z,17.90
2023-05-22T01:55:13.655Z,17.81
2023-05-22T01:58:20.723Z,17.88
2023-05-22T02:00:51.753Z,18.03
2023-05-22T02:03:23.176Z,18.03
2023-05-22T02:05:54.761Z,17.94
2023-05-22T02:08:23.040Z,17.97
2023-05-22T02:10:52.050Z,17.80
2023-05-22T02:13:19.094Z,17.86
2023-05-22T02:15:47.364Z,17.77
2023-05-22T02:18:14.483Z,17.55
2023-05-22T02:20:46.009Z,17.61
2023-05-22T02:23:12.811Z,17.55
2023-05-22T02:25:39.637Z,17.55
2023-05-22T02:28:06.525Z,17.62
2023-05-22T02:30:33.468Z,17.63
2023-05-22T02:33:00.561Z,17.75
2023-05-22T02:35:27.510Z,17.65
2023-05-22T02:37:54.374Z,17.38
2023-05-22T02:40:21.257Z,17.32
2023-05-22T02:42:48.240Z,17.18
2023-05-22T02:45:15.117Z,17.26
2023-05-22T02:47:41.932Z,17.26
2023-05-22T02:50:09.131Z,17.32
2023-05-22T02:52:37.256Z,17.29
2023-05-22T02:55:04.888Z,17.37
2023-05-22T02:57:32.071Z,17.30
2023-05-22T02:59:59.406Z,17.37
2023-05-22T03:02:28.608Z,17.40
2023-05-22T03:04:55.798Z,17.44
2023-05-22T03:07:22.642Z,17.40
2023-05-22T03:09:49.528Z,16.91
2023-05-22T03:12:16.386Z,15.62
2023-05-22T03:14:43.158Z,15.80
2023-05-22T03:17:09.964Z,15.98
2023-05-22T03:19:36.755Z,16.44
2023-05-22T03:22:04.005Z,16.48
2023-05-22T03:24:31.668Z,16.53
2023-05-22T03:27:00.396Z,16.41
2023-05-22T03:29:27.249Z,16.36
2023-05-22T03:31:54.786Z,16.39
2023-05-22T03:34:27.934Z,16.61
2023-05-22T03:36:54.762Z,16.90
2023-05-22T03:39:21.619Z,16.89
2023-05-22T03:41:48.484Z,17.29
2023-05-22T03:44:15.260Z,17.32
2023-05-22T03:46:42.067Z,17.74
2023-05-22T03:49:08.895Z,17.87
2023-05-22T03:51:35.808Z,18.15
2023-05-22T03:54:02.688Z,18.54
2023-05-22T03:56:29.440Z,19.02
2023-05-22T03:58:56.386Z,19.30
2023-05-22T04:01:23.824Z,19.23
2023-05-22T04:03:50.879Z,19.73
2023-05-22T04:06:21.852Z,20.08
2023-05-22T04:08:49.350Z,20.29
2023-05-22T04:11:16.245Z,20.25
2023-05-22T04:13:43.297Z,20.16
2023-05-22T04:16:10.755Z,20.71
2023-05-22T04:18:37.723Z,20.89
2023-05-22T04:21:08.180Z,21.67
2023-05-22T04:23:35.194Z,22.35
2023-05-22T04:26:03.213Z,22.85
2023-05-22T04:28:30.473Z,23.38
2023-05-22T04:30:57.881Z,23.95
2023-05-22T04:33:24.922Z,24.36
2023-05-22T04:35:52.475Z,24.34
2023-05-22T04:38:19.434Z,24.43
2023-05-22T04:40:46.380Z,24.75
2023-05-22T04:43:13.980Z,25.17
2023-05-22T04:45:42.502Z,24.23
2023-05-22T04:48:09.409Z,24.37
2023-05-22T04:50:36.303Z,24.20
2023-05-22T04:53:04.548Z,24.04
2023-05-22T04:55:34.207Z,24.41
2023-05-22T04:58:01.122Z,24.65
2023-05-22T05:00:29.074Z,24.95
2023-05-22T05:02:57.610Z,24.69
2023-05-22T05:05:24.665Z,25.19
2023-05-22T05:07:52.042Z,25.36
2023-05-22T05:10:19.391Z,25.00
2023-05-22T05:12:46.255Z,25.32
2023-05-22T05:15:13.121Z,25.01
2023-05-22T05:17:40.106Z,25.92
2023-05-22T05:20:07.932Z,27.21
2023-05-22T05:22:34.973Z,28.15
2023-05-22T05:25:02.105Z,29.13
2023-05-22T05:27:28.885Z,29.76
2023-05-22T05:29:56.265Z,30.36
2023-05-22T05:32:23.196Z,30.61
2023-05-22T05:34:50.280Z,31.02
2023-05-22T05:37:17.396Z,31.30
2023-05-22T05:39:44.681Z,31.02
2023-05-22T05:42:11.681Z,30.42
2023-05-22T05:44:38.623Z,30.01
2023-05-22T05:47:05.873Z,29.53
2023-05-22T05:49:35.658Z,28.30
2023-05-22T05:52:02.899Z,28.01
2023-05-22T05:54:29.754Z,27.58
2023-05-22T05:56:56.542Z,27.03
2023-05-22T05:59:24.562Z,27.01
2023-05-22T06:01:51.651Z,25.65
2023-05-22T06:04:18.522Z,25.92
2023-05-22T06:06:45.499Z,25.93
2023-05-22T06:09:12.483Z,25.93
2023-05-22T06:11:39.328Z,25.77
2023-05-22T06:14:07.579Z,25.79
2023-05-22T06:16:34.585Z,26.51
2023-05-22T06:19:01.594Z,27.29
2023-05-22T06:21:28.516Z,27.91
2023-05-22T06:23:55.405Z,27.25
2023-05-22T06:26:23.692Z,27.82
2023-05-22T06:28:51.973Z,27.38
2023-05-22T06:31:18.969Z,26.67
2023-05-22T06:33:45.994Z,25.99
2023-05-22T06:36:12.987Z,26.19
2023-05-22T06:38:39.929Z,26.95
2023-05-22T06:41:08.462Z,27.21
2023-05-22T06:43:35.347Z,26.19
2023-05-22T06:46:02.256Z,25.71
2023-05-22T06:48:29.160Z,26.19
2023-05-22T06:50:56.148Z,25.70
2023-05-22T06:53:24.080Z,26.59
2023-05-22T06:55:51.266Z,25.93
2023-05-22T06:58:18.934Z,26.31
2023-05-22T07:00:46.282Z,26.41
2023-05-22T07:03:13.152Z,26.13
2023-05-22T07:05:40.146Z,26.29
2023-05-22T07:08:08.603Z,26.95
2023-05-22T07:10:35.516Z,26.94
2023-05-22T07:13:02.422Z,27.10
2023-05-22T07:15:29.299Z,26.70
2023-05-22T07:17:56.277Z,27.14
2023-05-22T07:20:23.318Z,27.88
2023-05-22T07:22:50.264Z,28.48
2023-05-22T07:25:17.193Z,28.47
2023-05-22T07:27:44.335Z,27.96
2023-05-22T07:30:11.692Z,28.02
2023-05-22T07:32:38.720Z,27.26
2023-05-22T07:35:06.337Z,28.04
2023-05-22T07:37:33.203Z,27.34
2023-05-22T07:40:00.250Z,28.40
2023-05-22T07:42:28.260Z,27.64
2023-05-22T07:44:55.111Z,27.67
2023-05-22T07:47:22.034Z,28.15
2023-05-22T07:49:48.974Z,28.08
2023-05-22T07:52:15.831Z,28.59
2023-05-22T07:54:44.311Z,28.84
2023-05-22T07:57:12.826Z,28.62
2023-05-22T07:59:39.643Z,29.01
2023-05-22T08:02:08.607Z,29.84
2023-05-22T08:04:35.764Z,29.92
2023-05-22T08:07:02.818Z,29.48
2023-05-22T08:09:29.710Z,29.79
2023-05-22T08:11:56.680Z,29.04
2023-05-22T08:14:23.694Z,28.83
2023-05-22T08:16:50.473Z,28.40
2023-05-22T08:19:17.494Z,27.73
2023-05-22T08:21:44.464Z,28.46
2023-05-22T08:24:11.505Z,28.42
2023-05-22T08:26:39.079Z,28.27
2023-05-22T08:29:05.940Z,29.24
2023-05-22T08:31:34.637Z,28.90
2023-05-22T08:34:06.576Z,29.42
2023-05-22T08:36:36.253Z,29.46
2023-05-22T08:39:03.768Z,29.72
2023-05-22T08:41:30.703Z,29.76
2023-05-22T08:43:57.745Z,30.31
2023-05-22T08:46:29.429Z,30.40
2023-05-22T08:48:59.497Z,31.11
2023-05-22T08:51:31.686Z,31.28
2023-05-22T08:53:59.597Z,31.15
2023-05-22T08:56:28.583Z,31.60
2023-05-22T08:58:58.527Z,32.78
2023-05-22T09:01:25.689Z,33.46
2023-05-22T09:03:52.723Z,32.56
2023-05-22T09:06:19.620Z,33.09
2023-05-22T09:08:46.468Z,32.63
2023-05-22T09:11:13.453Z,32.38
2023-05-22T09:13:41.627Z,32.82
2023-05-22T09:16:12.388Z,32.21
2023-05-22T09:18:40.107Z,32.57
2023-05-22T09:21:21.469Z,30.28
2023-05-22T09:23:55.062Z,31.04
2023-05-22T09:26:22.582Z,30.99
2023-05-22T09:28:49.646Z,30.93
2023-05-22T09:31:16.713Z,30.74
2023-05-22T09:33:44.640Z,31.51
2023-05-22T09:36:11.888Z,32.20
2023-05-22T09:38:39.586Z,32.70
2023-05-22T09:41:06.601Z,33.33
2023-05-22T09:43:33.898Z,32.51
2023-05-22T09:46:02.210Z,33.29
2023-05-22T09:48:29.330Z,33.94
2023-05-22T09:51:00.007Z,34.24
2023-05-22T09:53:29.140Z,34.13
2023-05-22T09:56:00.220Z,33.70
2023-05-22T09:58:28.144Z,32.34
2023-05-22T10:00:58.507Z,32.96
2023-05-22T10:03:27.320Z,34.03
2023-05-22T10:05:56.639Z,34.94
2023-05-22T10:08:34.714Z,35.49
2023-05-22T10:11:02.155Z,35.72
2023-05-22T10:13:30.255Z,35.85
2023-05-22T10:15:57.834Z,34.79
2023-05-22T10:18:25.222Z,34.58
2023-05-22T10:20:52.703Z,35.17
2023-05-22T10:23:20.014Z,35.71
2023-05-22T10:25:47.148Z,36.54
2023-05-22T10:28:20.774Z,37.24
2023-05-22T10:30:55.797Z,37.55
2023-05-22T10:33:26.302Z,38.31
2023-05-22T10:36:07.747Z,38.88
2023-05-22T10:39:16.116Z,39.01
2023-05-22T10:41:42.926Z,39.17
2023-05-22T10:44:10.016Z,39.41
2023-05-22T10:46:36.974Z,39.84
2023-05-22T10:49:04.161Z,39.96
2023-05-22T10:51:34.483Z,40.13
2023-05-22T10:54:06.297Z,40.15
2023-05-22T10:56:37.349Z,40.40
2023-05-22T10:59:07.533Z,40.62
2023-05-22T11:01:40.954Z,40.49
2023-05-22T11:04:07.700Z,40.66
2023-05-22T11:06:47.350Z,40.67
2023-05-22T11:09:24.071Z,40.61
2023-05-22T11:12:12.595Z,38.95
2023-05-22T11:14:39.662Z,39.06
2023-05-22T11:17:07.152Z,38.55
2023-05-22T11:19:34.548Z,38.16
2023-05-22T11:22:04.626Z,37.77
2023-05-22T11:24:35.166Z,36.45
2023-05-22T11:27:05.951Z,36.18
2023-05-22T11:29:33.943Z,36.41
2023-05-22T11:32:02.070Z,36.92
2023-05-22T11:34:29.292Z,35.78
2023-05-22T11:37:00.315Z,36.76
2023-05-22T11:39:27.862Z,37.03
2023-05-22T11:41:55.119Z,37.41
2023-05-22T11:44:22.129Z,37.34
2023-05-22T11:46:49.336Z,38.05
2023-05-22T11:49:17.389Z,38.48
2023-05-22T11:51:44.645Z,38.84
2023-05-22T11:54:12.048Z,38.88
2023-05-22T11:56:38.929Z,38.92
2023-05-22T11:59:05.868Z,39.18
2023-05-22T12:01:32.768Z,38.43
2023-05-22T12:03:59.766Z,38.33
2023-05-22T12:06:27.026Z,38.38
2023-05-22T12:08:54.402Z,38.96
2023-05-22T12:11:21.842Z,38.46
2023-05-22T12:13:52.331Z,38.59
2023-05-22T12:16:22.340Z,38.21
2023-05-22T12:18:53.900Z,36.44
2023-05-22T12:21:21.161Z,36.70
2023-05-22T12:23:52.516Z,37.44
2023-05-22T12:26:19.457Z,37.88
2023-05-22T12:28:46.512Z,37.60
2023-05-22T12:31:21.445Z,36.62
2023-05-22T12:33:48.548Z,36.34
2023-05-22T12:36:15.434Z,36.19
2023-05-22T12:38:42.314Z,35.60
2023-05-22T12:41:09.090Z,34.77
2023-05-22T12:43:36.038Z,35.26
2023-05-22T12:46:03.170Z,35.78
2023-05-22T12:48:30.030Z,35.68
2023-05-22T12:50:56.892Z,33.99
2023-05-22T12:53:24.536Z,34.78
2023-05-22T12:55:51.454Z,35.08
2023-05-22T12:58:18.459Z,35.16
2023-05-22T13:00:45.378Z,34.57
2023-05-22T13:03:12.669Z,34.11
2023-05-22T13:05:40.070Z,34.06
2023-05-22T13:08:07.356Z,33.60
2023-05-22T13:10:35.597Z,32.65
2023-05-22T13:13:03.254Z,31.55
2023-05-22T13:15:31.534Z,31.48
2023-05-22T13:17:58.626Z,29.07
2023-05-22T13:20:25.488Z,29.56
2023-05-22T13:22:52.484Z,29.60
2023-05-22T13:25:19.398Z,28.72
2023-05-22T13:27:46.596Z,28.00
2023-05-22T13:30:16.287Z,28.43
2023-05-22T13:32:45.119Z,27.93
2023-05-22T13:35:12.014Z,27.82
2023-05-22T13:37:41.691Z,27.04
2023-05-22T13:40:09.134Z,27.17
2023-05-22T13:42:36.516Z,27.98
2023-05-22T13:45:09.346Z,27.53
2023-05-22T13:47:36.507Z,28.36
2023-05-22T13:50:05.643Z,28.82
2023-05-22T13:52:32.484Z,29.29
2023-05-22T13:55:00.322Z,29.62
2023-05-22T13:57:29.054Z,29.75
2023-05-22T13:59:55.972Z,30.13
2023-05-22T14:02:22.859Z,30.11
2023-05-22T14:04:52.754Z,30.14
2023-05-22T14:07:19.679Z,30.75
2023-05-22T14:09:46.557Z,30.14
2023-05-22T14:12:13.727Z,30.44
2023-05-22T14:14:40.765Z,31.16
2023-05-22T14:17:08.800Z,31.27
2023-05-22T14:19:36.578Z,31.57
2023-05-22T14:22:03.954Z,31.18
2023-05-22T14:24:33.276Z,31.39
2023-05-22T14:27:02.149Z,31.70
2023-05-22T14:29:29.190Z,31.83
2023-05-22T14:32:05.676Z,32.00
2023-05-22T14:34:32.778Z,31.98
2023-05-22T14:36:59.865Z,32.58
2023-05-22T14:39:26.817Z,32.80
2023-05-22T14:41:54.802Z,33.01
2023-05-22T14:44:22.828Z,33.27
2023-05-22T14:46:51.252Z,33.65
2023-05-22T14:49:18.762Z,33.62
2023-05-22T14:51:48.482Z,33.82
2023-05-22T14:54:18.110Z,33.53
2023-05-22T14:56:47.784Z,33.47
2023-05-22T14:59:14.656Z,33.12
2023-05-22T15:01:41.840Z,31.82
2023-05-22T15:04:11.046Z,31.71
2023-05-22T15:06:38.221Z,32.05
2023-05-22T15:09:05.096Z,31.22
2023-05-22T15:11:33.998Z,31.92
2023-05-22T15:14:00.999Z,32.36
2023-05-22T15:16:28.162Z,30.69
2023-05-22T15:18:56.563Z,31.15
2023-05-22T15:21:23.675Z,31.60
2023-05-22T15:23:51.484Z,31.92
2023-05-22T15:26:18.364Z,32.18
2023-05-22T15:28:45.454Z,32.09
2023-05-22T15:31:13.594Z,31.71
2023-05-22T15:33:40.415Z,31.83
2023-05-22T15:36:07.499Z,31.67
2023-05-22T15:38:34.481Z,30.43
2023-05-22T15:41:01.378Z,31.31
2023-05-22T15:43:28.276Z,30.82
2023-05-22T15:45:55.197Z,31.14
2023-05-22T15:48:22.152Z,30.27
2023-05-22T15:50:49.056Z,30.19
2023-05-22T15:53:16.189Z,29.44
2023-05-22T15:55:43.055Z,30.01
2023-05-22T15:58:09.940Z,29.62
2023-05-22T16:00:41.350Z,28.20
2023-05-22T16:03:09.131Z,27.84
2023-05-22T16:05:38.938Z,27.94
2023-05-22T16:08:12.702Z,28.36
2023-05-22T16:10:41.814Z,28.48
2023-05-22T16:13:10.746Z,29.20
2023-05-22T16:15:40.102Z,28.46
2023-05-22T16:18:08.254Z,28.20
2023-05-22T16:20:36.194Z,28.67
2023-05-22T16:23:03.307Z,28.50
2023-05-22T16:25:30.159Z,28.98
2023-05-22T16:27:57.228Z,28.22
2023-05-22T16:30:24.098Z,28.69
2023-05-22T16:32:51.116Z,27.93
2023-05-22T16:35:19.806Z,27.10
2023-05-22T16:37:46.788Z,27.13
2023-05-22T16:40:13.734Z,28.03
2023-05-22T16:42:40.713Z,27.54
2023-05-22T16:45:08.170Z,27.92
2023-05-22T16:47:35.137Z,28.24
2023-05-22T16:50:02.183Z,28.17
2023-05-22T16:52:29.209Z,28.31
2023-05-22T16:54:56.172Z,28.00
2023-05-22T16:57:23.362Z,28.11
2023-05-22T16:59:50.457Z,27.80
2023-05-22T17:02:17.381Z,28.05
2023-05-22T17:04:44.388Z,27.45
2023-05-22T17:07:11.237Z,27.55
2023-05-22T17:09:38.362Z,27.35
2023-05-22T17:12:05.691Z,27.68
2023-05-22T17:14:34.478Z,27.78
2023-05-22T17:17:01.352Z,27.41
2023-05-22T17:19:28.298Z,27.45
2023-05-22T17:21:55.334Z,27.59
2023-05-22T17:24:22.215Z,27.42
2023-05-22T17:26:49.229Z,27.45
2023-05-22T17:29:16.390Z,27.58
2023-05-22T17:31:43.267Z,27.88
2023-05-22T17:34:10.061Z,27.32
2023-05-22T17:36:37.346Z,26.94
2023-05-22T17:39:04.534Z,27.55
2023-05-22T17:41:31.609Z,27.82
2023-05-22T17:44:00.925Z,28.12
2023-05-22T17:46:27.999Z,28.20
2023-05-22T17:48:55.600Z,28.34
2023-05-22T17:51:22.873Z,28.45
2023-05-22T17:53:50.332Z,28.40
2023-05-22T17:56:17.594Z,28.41
2023-05-22T17:58:44.571Z,28.46
2023-05-22T18:01:11.516Z,28.32
2023-05-22T18:03:38.491Z,28.29
2023-05-22T18:06:05.921Z,28.38
2023-05-22T18:08:32.758Z,28.37
2023-05-22T18:10:59.693Z,28.17
2023-05-22T18:13:26.591Z,28.34
2023-05-22T18:15:54.128Z,28.38
2023-05-22T18:18:22.742Z,28.13
2023-05-22T18:20:49.892Z,28.02
2023-05-22T18:23:16.752Z,27.76
2023-05-22T18:25:43.641Z,27.63
2023-05-22T18:28:10.570Z,27.43
2023-05-22T18:30:37.655Z,27.31
2023-05-22T18:33:04.779Z,27.27
2023-05-22T18:35:31.863Z,27.01
2023-05-22T18:38:00.357Z,27.04
2023-05-22T18:40:27.262Z,26.83
2023-05-22T18:42:54.118Z,26.62
2023-05-22T18:45:21.052Z,26.62
2023-05-22T18:47:47.924Z,26.67
2023-05-22T18:50:14.900Z,26.60
2023-05-22T18:52:41.779Z,26.57
2023-05-22T18:55:09.249Z,26.25
2023-05-22T18:57:36.466Z,26.32
2023-05-22T19:00:03.581Z,26.54
2023-05-22T19:02:30.640Z,26.33
2023-05-22T19:04:57.489Z,26.18
2023-05-22T19:07:24.392Z,25.87
2023-05-22T19:09:51.571Z,25.99
2023-05-22T19:12:18.457Z,26.12
2023-05-22T19:14:45.371Z,25.80
2023-05-22T19:17:12.537Z,25.53
2023-05-22T19:19:39.722Z,25.03
2023-05-22T19:22:06.679Z,24.87
2023-05-22T19:24:33.489Z,24.71
2023-05-22T19:27:00.602Z,24.53
2023-05-22T19:29:27.512Z,24.59
2023-05-22T19:31:54.370Z,24.49
2023-05-22T19:34:21.657Z,24.38
2023-05-22T19:36:50.529Z,24.56
2023-05-22T19:39:17.457Z,24.58
2023-05-22T19:41:44.246Z,24.54
2023-05-22T19:44:11.046Z,24.54
2023-05-22T19:46:37.961Z,24.70
2023-05-22T19:49:04.773Z,24.70
2023-05-22T19:51:32.287Z,24.62
2023-05-22T19:53:59.799Z,24.68
2023-05-22T19:56:27.287Z,24.45
2023-05-22T19:58:54.167Z,24.00
2023-05-22T20:01:21.069Z,24.33
2023-05-22T20:03:48.154Z,24.31
2023-05-22T20:06:15.209Z,24.32
2023-05-22T20:08:42.008Z,24.25
2023-05-22T20:11:09.006Z,24.22
2023-05-22T20:13:35.846Z,24.38
2023-05-22T20:16:03.727Z,24.17
2023-05-22T20:18:32.428Z,24.14
2023-05-22T20:20:59.273Z,24.16
2023-05-22T20:23:26.403Z,24.14
2023-05-22T20:25:53.295Z,24.13
2023-05-22T20:28:20.136Z,24.09
2023-05-22T20:30:47.136Z,24.08
2023-05-22T20:33:14.557Z,23.79
2023-05-22T20:35:42.456Z,23.46
2023-05-22T20:38:10.045Z,23.46
2023-05-22T20:40:37.121Z,23.53
2023-05-22T20:43:04.177Z,23.46
2023-05-22T20:45:31.223Z,23.23
2023-05-22T20:47:58.141Z,22.96
2023-05-22T20:50:25.031Z,22.80
2023-05-22T20:52:51.890Z,22.80
2023-05-22T20:55:18.950Z,22.70
2023-05-22T20:57:45.988Z,22.67
2023-05-22T21:00:14.030Z,22.37
2023-05-22T21:02:41.040Z,22.57
2023-05-22T21:05:08.322Z,22.69
2023-05-22T21:07:35.250Z,22.59
2023-05-22T21:10:02.219Z,22.54
2023-05-22T21:12:29.205Z,22.41
2023-05-22T21:14:56.082Z,22.27
2023-05-22T21:17:24.141Z,22.37
2023-05-22T21:19:51.201Z,22.25
2023-05-22T21:22:18.082Z,22.21
2023-05-22T21:24:45.018Z,22.12
2023-05-22T21:27:12.045Z,22.25
2023-05-22T21:29:38.965Z,21.96
2023-05-22T21:32:06.290Z,21.71
2023-05-22T21:34:33.091Z,21.63
2023-05-22T21:36:59.957Z,21.76
2023-05-22T21:39:26.956Z,21.70
2023-05-22T21:41:53.774Z,21.46
2023-05-22T21:44:20.762Z,21.55
2023-05-22T21:46:47.697Z,21.57
2023-05-22T21:49:15.129Z,21.64
2023-05-22T21:51:41.947Z,21.82
2023-05-22T21:54:08.763Z,21.54
2023-05-22T21:56:35.744Z,21.58
2023-05-22T21:59:02.684Z,21.50
2023-05-22T22:01:29.598Z,21.49
2023-05-22T22:12:08.938Z,21.39
2023-05-22T22:14:36.053Z,21.10
2023-05-22T22:17:05.953Z,21.07
2023-05-22T22:19:34.502Z,20.95
2023-05-22T22:22:02.635Z,20.91
2023-05-22T22:24:29.982Z,21.01
2023-05-22T22:26:56.961Z,21.23
2023-05-22T22:29:23.970Z,20.98
2023-05-22T22:31:51.063Z,20.85
2023-05-22T22:34:18.139Z,20.62
2023-05-22T22:36:45.149Z,20.48
2023-05-22T22:39:12.485Z,20.36
2023-05-22T22:41:39.304Z,20.35
2023-05-22T22:44:06.131Z,20.23
2023-05-22T22:46:33.068Z,20.30
2023-05-22T22:49:02.005Z,20.20
2023-05-22T22:51:32.271Z,20.36
2023-05-22T22:53:59.185Z,20.29
2023-05-22T22:56:29.508Z,20.41
2023-05-22T22:58:57.474Z,20.45
2023-05-22T23:01:24.893Z,20.33
2023-05-22T23:03:52.207Z,20.42
2023-05-22T23:06:19.603Z,20.36
2023-05-22T23:08:46.433Z,20.30
2023-05-22T23:11:13.344Z,20.17
2023-05-22T23:13:41.469Z,20.24
2023-05-22T23:16:08.709Z,20.15
2023-05-22T23:18:35.648Z,20.09
2023-05-22T23:21:02.597Z,20.14
2023-05-22T23:23:29.467Z,20.18
2023-05-22T23:25:58.910Z,20.14
2023-05-22T23:28:25.845Z,20.16
2023-05-22T23:30:53.004Z,20.22
2023-05-22T23:33:19.900Z,20.17
2023-05-22T23:35:46.755Z,20.07
2023-05-22T23:38:13.547Z,19.92
2023-05-22T23:40:40.436Z,19.82
2023-05-22T23:43:07.239Z,20.04
2023-05-22T23:45:34.122Z,20.18
2023-05-22T23:48:01.006Z,19.89
2023-05-22T23:50:27.791Z,19.71
2023-05-22T23:52:54.710Z,19.44
2023-05-22T23:55:21.572Z,19.78
2023-05-22T23:57:48.417Z,19.53
